CJB5 weather

Moosomin Airport
Moosomin, Saskatchewan, Canada

Public forecast

Using degrees Celsius for public forecast. Weather courtesy of forecast.io.

Closest aviation weather report (METAR) to Moosomin Airport

Closest report is Brandon Municipal Airport, 67.1 nm (124.2 km) ESE. Retrieved 2019/10/20 04:00 UTC (32 minutes ago):

CYBR 200400Z 25004KT 15SM FEW250 03/02 A2955 RMK CI1 SLP025

Closest aviation forecast (TAF) to Moosomin Airport

Closest forecast is Brandon Municipal Airport, 67.1 nm (124.2 km) ESE. Retrieved 2019-10-20 00:39 UTC (4 hours ago):

TAF TAF CYBR 192338Z 2000/2012 24006KT P6SM SCT090 BKN250 TEMPO 2000/2006 BKN090 BKN250 FM200600 29008KT P6SM FEW090 RMK NXT FCST BY 200600Z